createdAt,value
2022-11-06T00:01:48.313Z,6.47
2022-11-06T00:04:16.220Z,5.87
2022-11-06T00:06:49.004Z,6.10
2022-11-06T00:09:19.005Z,6.40
2022-11-06T00:11:47.780Z,6.10
2022-11-06T00:14:16.241Z,5.40
2022-11-06T00:16:46.626Z,5.63
2022-11-06T00:19:15.314Z,5.30
2022-11-06T00:21:43.218Z,4.93
2022-11-06T00:24:13.545Z,7.03
2022-11-06T00:26:41.416Z,8.10
2022-11-06T00:29:12.823Z,7.43
2022-11-06T00:31:40.763Z,7.70
2022-11-06T00:34:10.940Z,6.10
2022-11-06T00:36:38.957Z,6.57
2022-11-06T00:39:07.092Z,6.17
2022-11-06T00:41:34.940Z,5.40
2022-11-06T00:44:04.279Z,6.13
2022-11-06T00:46:32.385Z,4.90
2022-11-06T00:49:00.261Z,5.67
2022-11-06T00:51:31.571Z,5.83
2022-11-06T00:54:01.672Z,6.57
2022-11-06T00:56:30.367Z,5.77
2022-11-06T00:59:01.171Z,5.27
2022-11-06T01:01:30.962Z,5.07
2022-11-06T01:04:00.775Z,5.20
2022-11-06T01:06:31.513Z,5.20
2022-11-06T01:08:59.908Z,4.73
2022-11-06T01:11:46.556Z,5.27
2022-11-06T01:14:19.955Z,5.00
2022-11-06T01:16:48.171Z,4.73
2022-11-06T01:19:17.747Z,5.27
2022-11-06T01:21:48.745Z,5.50
2022-11-06T01:24:18.715Z,4.93
2022-11-06T01:27:12.144Z,4.90
2022-11-06T01:29:34.964Z,5.73
2022-11-06T01:32:03.040Z,5.13
2022-11-06T01:34:31.144Z,5.47
2022-11-06T01:37:00.365Z,5.07
2022-11-06T01:39:28.361Z,5.53
2022-11-06T01:41:56.337Z,4.60
2022-11-06T01:45:06.256Z,4.93
2022-11-06T01:47:34.107Z,4.83
2022-11-06T01:50:05.623Z,5.17
2022-11-06T01:52:35.679Z,5.37
2022-11-06T01:55:08.231Z,4.70
2022-11-06T01:57:36.192Z,4.50
2022-11-06T02:00:06.590Z,3.97
2022-11-06T02:02:34.970Z,4.03
2022-11-06T02:05:03.128Z,4.40
2022-11-06T02:07:31.302Z,4.83
2022-11-06T02:10:00.468Z,4.07
2022-11-06T02:12:40.558Z,3.83
2022-11-06T02:15:16.494Z,3.77
2022-11-06T02:18:01.199Z,4.23
2022-11-06T02:20:36.688Z,3.97
2022-11-06T02:23:23.727Z,4.07
2022-11-06T02:26:01.713Z,3.70
2022-11-06T02:28:36.196Z,4.00
2022-11-06T02:31:10.987Z,3.67
2022-11-06T02:33:44.769Z,3.87
2022-11-06T02:36:18.224Z,3.57
2022-11-06T02:38:51.215Z,4.10
2022-11-06T02:41:23.015Z,3.43
2022-11-06T02:43:55.159Z,3.20
2022-11-06T02:46:28.342Z,3.80
2022-11-06T02:49:01.036Z,3.40
2022-11-06T02:51:32.922Z,3.00
2022-11-06T02:54:03.582Z,2.80
2022-11-06T02:56:37.288Z,3.53
2022-11-06T02:59:11.037Z,3.20
2022-11-06T03:01:43.628Z,3.63
2022-11-06T03:04:16.428Z,3.37
2022-11-06T03:06:50.019Z,2.87
2022-11-06T03:09:21.756Z,3.07
2022-11-06T03:11:58.421Z,3.10
2022-11-06T03:14:32.444Z,2.87
2022-11-06T03:17:02.187Z,3.23
2022-11-06T03:19:33.316Z,3.17
2022-11-06T03:22:09.586Z,3.40
2022-11-06T03:24:45.126Z,2.90
2022-11-06T03:27:19.373Z,2.93
2022-11-06T03:29:53.044Z,2.67
2022-11-06T03:32:27.690Z,2.83
2022-11-06T03:35:05.704Z,2.80
2022-11-06T03:37:39.209Z,2.63
2022-11-06T03:40:13.030Z,2.70
2022-11-06T03:42:42.491Z,2.57
2022-11-06T03:45:15.603Z,2.80
2022-11-06T03:47:47.732Z,2.50
2022-11-06T03:50:19.184Z,2.90
2022-11-06T03:52:54.064Z,2.67
2022-11-06T03:55:25.860Z,3.20
2022-11-06T03:57:58.099Z,2.87
2022-11-06T04:00:27.310Z,3.00
2022-11-06T04:03:04.769Z,2.67
2022-11-06T04:05:38.134Z,3.10
2022-11-06T04:08:26.508Z,2.87
2022-11-06T04:11:15.938Z,3.13
2022-11-06T04:14:01.791Z,2.40
2022-11-06T04:16:35.944Z,3.03
2022-11-06T04:19:04.534Z,3.00
2022-11-06T04:21:44.345Z,2.80
2022-11-06T04:24:42.702Z,2.80
2022-11-06T04:27:24.564Z,2.70
2022-11-06T04:30:06.528Z,2.70
2022-11-06T04:32:48.613Z,3.20
2022-11-06T04:35:23.867Z,2.87
2022-11-06T04:37:59.782Z,2.63
2022-11-06T04:40:34.929Z,2.87
2022-11-06T04:43:07.230Z,2.87
2022-11-06T04:45:40.024Z,2.80
2022-11-06T04:48:11.327Z,3.07
2022-11-06T04:50:43.152Z,3.33
2022-11-06T04:53:12.461Z,2.87
2022-11-06T04:55:46.714Z,2.80
2022-11-06T04:58:15.273Z,2.63
2022-11-06T05:00:47.023Z,2.70
2022-11-06T05:03:17.000Z,2.70
2022-11-06T05:05:45.143Z,2.47
2022-11-06T05:08:16.398Z,2.60
2022-11-06T05:10:45.092Z,2.67
2022-11-06T05:13:13.484Z,2.43
2022-11-06T05:15:41.663Z,2.57
2022-11-06T05:18:09.940Z,2.50
2022-11-06T05:20:39.249Z,2.53
2022-11-06T05:23:06.120Z,2.80
2022-11-06T05:25:36.409Z,2.43
2022-11-06T05:28:06.940Z,2.73
2022-11-06T05:30:36.614Z,3.13
2022-11-06T05:33:04.508Z,2.70
2022-11-06T05:35:32.453Z,3.17
2022-11-06T05:38:02.377Z,3.10
2022-11-06T05:40:30.598Z,2.90
2022-11-06T05:42:58.415Z,2.40
2022-11-06T05:45:26.281Z,2.70
2022-11-06T05:47:54.146Z,2.57
2022-11-06T05:50:22.191Z,2.80
2022-11-06T05:52:50.061Z,2.30
2022-11-06T05:55:19.640Z,2.70
2022-11-06T05:57:47.509Z,2.70
2022-11-06T06:00:16.044Z,2.53
2022-11-06T06:02:44.307Z,2.30
2022-11-06T06:05:12.298Z,2.77
2022-11-06T06:07:40.139Z,2.87
2022-11-06T06:10:09.176Z,3.27
2022-11-06T06:12:39.529Z,3.30
2022-11-06T06:15:08.018Z,3.27
2022-11-06T06:17:36.393Z,3.20
2022-11-06T06:20:04.386Z,3.00
2022-11-06T06:22:32.199Z,2.80
2022-11-06T06:25:00.111Z,2.80
2022-11-06T06:27:28.327Z,2.60
2022-11-06T06:29:57.501Z,2.83
2022-11-06T06:32:25.316Z,3.13
2022-11-06T06:34:53.146Z,3.20
2022-11-06T06:37:20.984Z,3.13
2022-11-06T06:39:48.840Z,2.40
2022-11-06T06:42:16.655Z,2.83
2022-11-06T06:44:44.509Z,2.77
2022-11-06T06:47:16.766Z,3.07
2022-11-06T06:49:44.692Z,2.73
2022-11-06T06:52:12.947Z,2.77
2022-11-06T06:54:41.003Z,2.80
2022-11-06T06:57:09.794Z,3.27
2022-11-06T06:59:37.723Z,3.03
2022-11-06T07:02:05.662Z,3.47
2022-11-06T07:04:34.935Z,3.07
2022-11-06T07:07:02.762Z,2.60
2022-11-06T07:09:32.125Z,2.83
2022-11-06T07:12:00.257Z,2.80
2022-11-06T07:14:28.099Z,2.93
2022-11-06T07:16:55.989Z,3.07
2022-11-06T07:19:23.895Z,2.40
2022-11-06T07:21:53.876Z,2.87
2022-11-06T07:24:21.730Z,3.30
2022-11-06T07:26:49.852Z,2.90
2022-11-06T07:29:17.727Z,2.57
2022-11-06T07:31:45.606Z,3.10
2022-11-06T07:34:13.713Z,3.07
2022-11-06T07:36:41.556Z,2.90
2022-11-06T07:39:10.747Z,2.57
2022-11-06T07:41:38.761Z,2.77
2022-11-06T07:44:06.707Z,7.63
2022-11-06T07:46:34.732Z,11.63
2022-11-06T07:49:02.713Z,4.80
2022-11-06T07:51:30.813Z,2.80
2022-11-06T07:53:58.685Z,2.80
2022-11-06T07:56:27.874Z,2.97
2022-11-06T07:58:55.923Z,3.33
2022-11-06T08:01:23.897Z,2.90
2022-11-06T08:03:51.862Z,2.80
2022-11-06T08:06:19.730Z,2.67
2022-11-06T08:08:47.631Z,2.80
2022-11-06T08:11:15.839Z,2.80
2022-11-06T08:13:45.114Z,3.00
2022-11-06T08:16:15.164Z,3.23
2022-11-06T08:18:43.097Z,3.30
2022-11-06T08:21:10.983Z,3.83
2022-11-06T08:23:39.069Z,3.70
2022-11-06T08:26:07.646Z,4.53
2022-11-06T08:28:35.929Z,4.90
2022-11-06T08:31:08.872Z,3.90
2022-11-06T08:33:38.626Z,3.97
2022-11-06T08:36:08.572Z,6.80
2022-11-06T08:38:37.336Z,8.60
2022-11-06T08:41:06.491Z,5.50
2022-11-06T08:43:34.366Z,5.43
2022-11-06T08:46:02.513Z,5.00
2022-11-06T08:48:34.081Z,5.20
2022-11-06T08:51:02.176Z,5.37
2022-11-06T08:53:30.144Z,4.80
2022-11-06T08:55:57.986Z,5.63
2022-11-06T08:58:25.827Z,5.00
2022-11-06T09:00:53.778Z,5.57
2022-11-06T09:03:21.709Z,5.17
2022-11-06T09:05:50.966Z,5.60
2022-11-06T09:08:18.852Z,5.67
2022-11-06T09:10:47.169Z,5.50
2022-11-06T09:13:15.521Z,5.37
2022-11-06T09:15:43.567Z,5.13
2022-11-06T09:18:12.415Z,5.50
2022-11-06T09:20:40.257Z,6.70
2022-11-06T09:23:10.635Z,5.67
2022-11-06T09:25:38.744Z,4.87
2022-11-06T09:28:06.630Z,5.10
2022-11-06T09:30:34.505Z,4.77
2022-11-06T09:33:03.714Z,5.23
2022-11-06T09:35:33.178Z,4.67
2022-11-06T09:38:04.346Z,4.60
2022-11-06T09:40:36.421Z,4.03
2022-11-06T09:43:58.141Z,4.20
2022-11-06T09:46:22.920Z,4.20
2022-11-06T09:48:57.251Z,4.60
2022-11-06T09:51:33.013Z,5.80
2022-11-06T09:54:06.753Z,6.17
2022-11-06T09:56:39.210Z,4.73
2022-11-06T09:59:13.347Z,4.80
2022-11-06T10:01:44.941Z,5.20
2022-11-06T10:04:25.059Z,4.60
2022-11-06T10:06:53.801Z,4.63
2022-11-06T10:09:21.697Z,4.37
2022-11-06T10:12:01.936Z,4.73
2022-11-06T10:14:43.935Z,4.60
2022-11-06T10:17:21.833Z,4.13
2022-11-06T10:19:56.363Z,3.60
2022-11-06T10:22:32.079Z,6.20
2022-11-06T10:25:07.096Z,2.77
2022-11-06T10:27:41.754Z,2.70
2022-11-06T10:30:12.899Z,2.60
2022-11-06T10:32:59.000Z,2.60
2022-11-06T10:35:31.914Z,2.30
2022-11-06T10:38:06.358Z,2.20
2022-11-06T10:40:35.501Z,2.60
2022-11-06T10:43:13.213Z,1.97
2022-11-06T10:45:43.581Z,4.33
2022-11-06T10:48:28.913Z,1.97
2022-11-06T10:51:16.464Z,1.77
2022-11-06T10:53:57.156Z,2.03
2022-11-06T10:56:40.832Z,2.17
2022-11-06T10:59:10.162Z,1.93
2022-11-06T11:01:39.357Z,1.77
2022-11-06T11:04:07.259Z,1.93
2022-11-06T11:06:35.138Z,1.67
2022-11-06T11:09:04.045Z,1.83
2022-11-06T11:11:31.894Z,2.17
2022-11-06T11:14:25.025Z,1.90
2022-11-06T11:16:53.359Z,1.80
2022-11-06T11:19:34.991Z,1.73
2022-11-06T11:22:05.023Z,2.03
2022-11-06T11:24:33.207Z,1.77
2022-11-06T11:27:03.558Z,1.93
2022-11-06T11:29:35.206Z,1.90
2022-11-06T11:32:07.008Z,7.20
2022-11-06T11:34:40.632Z,6.10
2022-11-06T11:37:24.734Z,2.00
2022-11-06T11:39:52.685Z,1.57
2022-11-06T11:42:27.425Z,2.00
2022-11-06T11:45:14.275Z,2.00
2022-11-06T11:47:43.534Z,1.77
2022-11-06T11:50:28.122Z,1.90
2022-11-06T11:53:00.862Z,3.27
2022-11-06T11:55:31.590Z,3.17
2022-11-06T11:58:02.154Z,1.53
2022-11-06T12:00:31.702Z,1.97
2022-11-06T12:03:02.638Z,2.10
2022-11-06T12:05:36.051Z,2.07
2022-11-06T12:08:04.727Z,1.97
2022-11-06T12:10:35.390Z,2.23
2022-11-06T12:13:06.064Z,2.03
2022-11-06T12:15:45.141Z,1.90
2022-11-06T12:18:15.798Z,2.20
2022-11-06T12:20:50.663Z,2.20
2022-11-06T12:23:24.830Z,2.20
2022-11-06T12:25:59.339Z,2.13
2022-11-06T12:28:28.573Z,2.40
2022-11-06T12:31:05.490Z,2.20
2022-11-06T12:34:04.531Z,2.00
2022-11-06T12:36:25.708Z,2.20
2022-11-06T12:38:58.130Z,2.20
2022-11-06T12:41:30.451Z,2.37
2022-11-06T12:43:59.923Z,2.00
2022-11-06T12:46:44.498Z,2.03
2022-11-06T12:49:28.999Z,2.07
2022-11-06T12:52:06.490Z,2.23
2022-11-06T12:54:55.266Z,2.00
2022-11-06T12:57:31.045Z,1.97
2022-11-06T13:00:07.005Z,2.00
2022-11-06T13:03:03.199Z,2.23
2022-11-06T13:05:36.350Z,2.30
2022-11-06T13:08:17.810Z,1.63
2022-11-06T13:10:57.350Z,2.10
2022-11-06T13:13:43.032Z,1.67
2022-11-06T13:16:20.083Z,1.60
2022-11-06T13:18:53.862Z,2.13
2022-11-06T13:21:31.928Z,1.90
2022-11-06T13:24:04.219Z,2.10
2022-11-06T13:26:38.068Z,3.10
2022-11-06T13:29:10.552Z,2.03
2022-11-06T13:31:42.385Z,2.27
2022-11-06T13:34:19.626Z,2.13
2022-11-06T13:36:48.138Z,2.20
2022-11-06T13:39:22.784Z,2.27
2022-11-06T13:41:51.944Z,2.40
2022-11-06T13:44:21.313Z,2.40
2022-11-06T13:46:57.247Z,2.20
2022-11-06T13:49:33.022Z,2.83
2022-11-06T13:52:03.050Z,6.07
2022-11-06T13:54:42.465Z,2.73
2022-11-06T13:57:45.474Z,2.23
2022-11-06T14:00:22.038Z,2.13
2022-11-06T14:03:29.246Z,2.43
2022-11-06T14:06:02.395Z,2.20
2022-11-06T14:08:34.039Z,2.83
2022-11-06T14:11:06.596Z,2.50
2022-11-06T14:13:36.704Z,2.33
2022-11-06T14:16:08.168Z,2.80
2022-11-06T14:18:36.548Z,2.50
2022-11-06T14:21:43.783Z,2.67
2022-11-06T14:24:39.371Z,2.23
2022-11-06T14:27:11.681Z,2.70
2022-11-06T14:30:01.704Z,2.50
2022-11-06T14:32:41.549Z,2.70
2022-11-06T14:35:50.521Z,2.37
2022-11-06T14:38:35.208Z,3.43
2022-11-06T14:41:04.036Z,3.70
2022-11-06T14:43:33.531Z,2.80
2022-11-06T14:46:04.477Z,2.50
2022-11-06T14:48:35.042Z,2.90
2022-11-06T14:51:06.224Z,3.23
2022-11-06T14:53:39.687Z,3.00
2022-11-06T14:56:09.822Z,2.90
2022-11-06T14:58:40.238Z,2.70
2022-11-06T15:01:16.181Z,3.10
2022-11-06T15:03:50.943Z,3.17
2022-11-06T15:06:38.477Z,3.17
2022-11-06T15:09:12.355Z,3.17
2022-11-06T15:12:00.893Z,3.33
2022-11-06T15:14:57.402Z,2.70
2022-11-06T15:17:36.228Z,3.10
2022-11-06T15:20:26.459Z,3.47
2022-11-06T15:23:14.790Z,2.90
2022-11-06T15:25:52.436Z,6.80
2022-11-06T15:28:23.713Z,4.60
2022-11-06T15:30:57.222Z,3.47
2022-11-06T15:33:31.979Z,3.37
2022-11-06T15:36:06.384Z,3.20
2022-11-06T15:38:39.792Z,3.20
2022-11-06T15:41:13.578Z,3.30
2022-11-06T15:43:44.488Z,3.20
2022-11-06T15:46:24.457Z,3.10
2022-11-06T15:49:09.113Z,3.20
2022-11-06T15:51:41.069Z,3.87
2022-11-06T15:54:14.494Z,3.67
2022-11-06T15:56:44.940Z,3.57
2022-11-06T15:59:15.700Z,4.40
2022-11-06T16:01:48.654Z,6.27
2022-11-06T16:04:20.979Z,3.70
2022-11-06T16:06:49.086Z,3.10
2022-11-06T16:09:19.984Z,3.60
2022-11-06T16:11:51.693Z,3.60
2022-11-06T16:14:20.921Z,3.50
2022-11-06T16:16:50.433Z,3.47
2022-11-06T16:19:27.358Z,3.23
2022-11-06T16:21:58.615Z,3.20
2022-11-06T16:24:29.707Z,3.50
2022-11-06T16:26:59.370Z,3.50
2022-11-06T16:29:28.838Z,3.87
2022-11-06T16:32:01.934Z,5.23
2022-11-06T16:34:44.038Z,3.60
2022-11-06T16:37:36.715Z,4.00
2022-11-06T16:40:07.022Z,3.60
2022-11-06T16:42:38.714Z,3.53
2022-11-06T16:45:18.615Z,3.67
2022-11-06T16:48:19.705Z,3.73
2022-11-06T16:50:50.317Z,3.50
2022-11-06T16:53:20.760Z,4.23
2022-11-06T16:55:54.814Z,3.80
2022-11-06T16:58:24.776Z,4.10
2022-11-06T17:01:01.462Z,4.00
2022-11-06T17:03:34.934Z,3.83
2022-11-06T17:06:02.912Z,3.83
2022-11-06T17:08:35.985Z,3.90
2022-11-06T17:11:21.582Z,3.43
2022-11-06T17:13:51.744Z,3.50
2022-11-06T17:16:21.534Z,3.83
2022-11-06T17:18:49.816Z,4.47
2022-11-06T17:21:20.126Z,3.83
2022-11-06T17:23:48.814Z,3.77
2022-11-06T17:26:21.491Z,3.40
2022-11-06T17:28:50.956Z,6.83
2022-11-06T17:31:20.461Z,9.00
2022-11-06T17:33:49.386Z,4.57
2022-11-06T17:36:19.485Z,4.53
2022-11-06T17:38:47.959Z,3.60
2022-11-06T17:41:29.550Z,3.70
2022-11-06T17:43:59.683Z,3.20
2022-11-06T17:46:30.496Z,3.50
2022-11-06T17:48:58.672Z,3.27
2022-11-06T17:51:44.722Z,3.77
2022-11-06T17:54:13.107Z,3.67
2022-11-06T17:56:41.375Z,3.73
2022-11-06T17:59:11.489Z,10.00
2022-11-06T18:01:39.508Z,4.63
2022-11-06T18:04:07.961Z,4.87
2022-11-06T18:06:36.036Z,5.70
2022-11-06T18:09:06.660Z,5.47
2022-11-06T18:11:34.799Z,4.90
2022-11-06T18:14:03.216Z,4.70
2022-11-06T18:16:38.478Z,7.50
2022-11-06T18:19:10.016Z,6.17
2022-11-06T18:21:38.302Z,6.80
2022-11-06T18:24:07.180Z,7.47
2022-11-06T18:26:37.169Z,6.37
2022-11-06T18:29:05.692Z,5.57
2022-11-06T18:31:35.157Z,6.27
2022-11-06T18:34:03.701Z,5.93
2022-11-06T18:36:33.158Z,7.40
2022-11-06T18:39:01.001Z,8.00
2022-11-06T18:41:29.803Z,8.70
2022-11-06T18:43:58.390Z,7.17
2022-11-06T18:46:27.719Z,6.80
2022-11-06T18:48:57.820Z,6.20
2022-11-06T18:51:35.038Z,6.13
2022-11-06T18:54:07.052Z,5.33
2022-11-06T18:56:35.960Z,4.27
2022-11-06T18:59:04.429Z,4.37
2022-11-06T19:01:34.501Z,5.33
2022-11-06T19:04:04.700Z,5.17
2022-11-06T19:06:33.381Z,5.70
2022-11-06T19:09:01.277Z,7.97
2022-11-06T19:11:29.137Z,7.50
2022-11-06T19:13:57.009Z,6.93
2022-11-06T19:16:24.845Z,7.03
2022-11-06T19:21:31.410Z,7.60
2022-11-06T19:24:04.037Z,7.67
2022-11-06T19:26:33.416Z,13.07
2022-11-06T19:29:01.699Z,11.77
2022-11-06T19:31:30.506Z,11.30
2022-11-06T19:33:59.170Z,9.70
2022-11-06T19:36:27.348Z,8.13
2022-11-06T19:38:58.627Z,7.30
2022-11-06T19:41:27.162Z,6.57
2022-11-06T19:43:55.480Z,5.77
2022-11-06T19:46:27.160Z,5.60
2022-11-06T19:48:57.526Z,4.63
2022-11-06T19:51:25.818Z,4.03
2022-11-06T19:53:54.043Z,3.90
2022-11-06T19:56:24.247Z,6.33
2022-11-06T19:58:53.046Z,5.27
2022-11-06T20:01:22.008Z,4.50
2022-11-06T20:03:50.011Z,5.60
2022-11-06T20:06:18.600Z,5.57
2022-11-06T20:08:48.891Z,5.63
2022-11-06T20:11:17.118Z,6.57
2022-11-06T20:13:47.102Z,7.73
2022-11-06T20:16:16.370Z,7.10
2022-11-06T20:18:44.880Z,5.97
2022-11-06T20:21:13.490Z,5.60
2022-11-06T20:23:41.397Z,4.13
2022-11-06T20:26:09.785Z,3.20
2022-11-06T20:28:37.918Z,2.37
2022-11-06T20:31:08.168Z,2.40
2022-11-06T20:33:36.983Z,2.90
2022-11-06T20:36:15.864Z,2.60
2022-11-06T20:38:44.670Z,2.33
2022-11-06T20:41:13.178Z,2.47
2022-11-06T20:43:41.192Z,2.90
2022-11-06T20:46:11.255Z,5.80
2022-11-06T20:48:39.530Z,3.33
2022-11-06T20:51:09.511Z,2.57
2022-11-06T20:53:37.490Z,2.50
2022-11-06T20:56:07.443Z,2.10
2022-11-06T20:58:36.141Z,1.77
2022-11-06T21:01:05.436Z,2.30
2022-11-06T21:03:35.453Z,2.33
2022-11-06T21:06:04.462Z,2.37
2022-11-06T21:08:33.821Z,2.73
2022-11-06T21:11:06.433Z,2.47
2022-11-06T21:13:35.454Z,2.40
2022-11-06T21:16:05.575Z,2.10
2022-11-06T21:18:36.387Z,2.50
2022-11-06T21:21:05.887Z,2.40
2022-11-06T21:23:34.818Z,1.90
2022-11-06T21:26:06.039Z,2.07
2022-11-06T21:28:34.541Z,2.00
2022-11-06T21:31:02.401Z,2.20
2022-11-06T21:33:30.282Z,1.90
2022-11-06T21:36:07.626Z,2.40
2022-11-06T21:38:35.574Z,1.90
2022-11-06T21:41:07.508Z,2.80
2022-11-06T21:43:35.724Z,26.77
2022-11-06T21:46:03.975Z,6.13
2022-11-06T21:48:45.831Z,3.17
2022-11-06T21:51:17.037Z,2.53
2022-11-06T21:54:02.199Z,2.40
2022-11-06T21:56:30.238Z,2.80
2022-11-06T21:59:00.127Z,2.97
2022-11-06T22:01:29.285Z,2.97
2022-11-06T22:03:57.427Z,2.50
2022-11-06T22:06:28.561Z,3.00
2022-11-06T22:08:57.752Z,2.80
2022-11-06T22:11:28.094Z,2.60
2022-11-06T22:13:57.521Z,2.40
2022-11-06T22:16:28.371Z,2.10
2022-11-06T22:18:56.496Z,2.53
2022-11-06T22:21:27.853Z,2.70
2022-11-06T22:23:56.466Z,2.30
2022-11-06T22:26:26.543Z,2.30
2022-11-06T22:28:55.516Z,2.30
2022-11-06T22:31:23.838Z,1.80
2022-11-06T22:33:54.124Z,2.10
2022-11-06T22:36:23.325Z,2.03
2022-11-06T22:38:53.191Z,1.80
2022-11-06T22:41:23.527Z,2.10
2022-11-06T22:43:51.837Z,2.10
2022-11-06T22:46:22.014Z,1.77
2022-11-06T22:48:50.954Z,1.50
2022-11-06T22:51:21.618Z,2.00
2022-11-06T22:53:50.236Z,2.10
2022-11-06T22:56:19.753Z,2.00
2022-11-06T22:58:47.758Z,1.93
2022-11-06T23:01:15.750Z,1.70
2022-11-06T23:03:43.617Z,1.80
2022-11-06T23:06:11.482Z,2.20
2022-11-06T23:08:45.577Z,1.93
2022-11-06T23:11:15.755Z,1.73
2022-11-06T23:13:45.573Z,1.77
2022-11-06T23:16:15.313Z,2.10
2022-11-06T23:18:43.691Z,1.70
2022-11-06T23:21:16.023Z,1.87
2022-11-06T23:23:45.174Z,1.93
2022-11-06T23:26:14.246Z,2.03
2022-11-06T23:28:44.223Z,1.90
2022-11-06T23:31:14.854Z,1.90
2022-11-06T23:33:43.234Z,1.57
2022-11-06T23:36:13.797Z,1.50
2022-11-06T23:38:42.778Z,1.60
2022-11-06T23:41:26.349Z,1.60
2022-11-06T23:43:55.934Z,1.40
2022-11-06T23:46:24.903Z,1.60
2022-11-06T23:48:52.980Z,1.30
2022-11-06T23:51:21.228Z,1.37
2022-11-06T23:53:49.123Z,1.40
2022-11-06T23:56:17.910Z,1.60
2022-11-06T23:58:46.779Z,1.37
